Time;durP1;ratioP1;P1;durP2;ratioP2;P2;SDS_P1;SDS_P2;PMS_P1;PMS_P2;Temp;Humidity;BMP_temperature;BMP_pressure;BME280_temperature;BME280_humidity;BME280_pressure;Samples;Min_cycle;Max_cycle;Signal;HPM_P1;HPM_P2
2023/08/05 00:02:23;;;;;;;3.85;1.50;;;20.60;99.90;;;;;;5051743;28;20120;-82
2023/08/05 00:04:49;;;;;;;2.75;1.60;;;20.60;99.90;;;;;;5052477;28;20064;-81
2023/08/05 00:07:14;;;;;;;2.80;1.33;;;20.60;99.90;;;;;;5053110;28;20037;-82
2023/08/05 00:09:40;;;;;;;3.03;1.45;;;20.60;99.90;;;;;;5051524;28;20060;-82
2023/08/05 00:12:06;;;;;;;3.10;1.40;;;20.60;99.90;;;;;;5050838;28;20414;-82
2023/08/05 00:14:34;;;;;;;4.03;1.48;;;20.60;99.90;;;;;;5052213;28;20029;-82
2023/08/05 00:17:00;;;;;;;2.30;1.30;;;20.60;99.90;;;;;;5052668;28;20043;-82
2023/08/05 00:19:25;;;;;;;2.20;1.42;;;20.50;99.90;;;;;;5052323;28;20411;-82
2023/08/05 00:21:51;;;;;;;2.65;1.30;;;20.60;99.90;;;;;;5053009;28;20029;-82
2023/08/05 00:24:17;;;;;;;2.88;1.38;;;20.50;99.90;;;;;;5051519;28;20037;-82
2023/08/05 00:26:42;;;;;;;3.78;1.40;;;20.50;99.90;;;;;;5052341;28;20021;-81
2023/08/05 00:29:09;;;;;;;1.65;0.90;;;20.50;99.90;;;;;;5052435;28;20462;-82
2023/08/05 00:31:34;;;;;;;3.50;1.38;;;20.50;99.90;;;;;;5052016;28;20057;-82
2023/08/05 00:34:00;;;;;;;3.83;1.30;;;20.50;99.90;;;;;;5052530;28;20029;-82
2023/08/05 00:36:26;;;;;;;3.03;1.00;;;20.50;99.90;;;;;;5052178;28;20033;-82
2023/08/05 00:38:51;;;;;;;2.53;1.02;;;20.50;99.90;;;;;;5050914;28;20476;-82
2023/08/05 00:41:17;;;;;;;3.83;1.10;;;20.50;99.90;;;;;;5052662;28;20028;-82
2023/08/05 00:43:43;;;;;;;6.82;1.65;;;20.50;99.90;;;;;;5050726;28;20039;-81
2023/08/05 00:46:10;;;;;;;3.42;1.17;;;20.50;99.90;;;;;;5034231;28;20128;-81
2023/08/05 00:48:36;;;;;;;3.15;1.70;;;20.50;99.90;;;;;;5051304;28;20040;-83
2023/08/05 00:51:03;;;;;;;2.35;1.23;;;20.50;99.90;;;;;;5052204;28;20025;-81
2023/08/05 00:53:30;;;;;;;3.42;1.13;;;20.40;99.90;;;;;;5034201;28;20025;-82
2023/08/05 00:55:56;;;;;;;2.38;1.00;;;20.50;99.90;;;;;;5051083;28;20151;-81
2023/08/05 00:58:22;;;;;;;1.85;0.93;;;20.50;99.90;;;;;;5052205;28;20033;-81
2023/08/05 01:00:48;;;;;;;2.22;1.20;;;20.50;99.90;;;;;;5053754;28;20048;-81
2023/08/05 01:03:14;;;;;;;4.72;1.40;;;20.50;99.90;;;;;;5054591;28;20028;-81
2023/08/05 01:05:41;;;;;;;3.60;1.20;;;20.50;99.90;;;;;;5054435;28;20036;-81
2023/08/05 01:08:07;;;;;;;2.17;0.75;;;20.40;99.90;;;;;;5055821;28;20040;-82
2023/08/05 01:10:33;;;;;;;2.28;1.20;;;20.50;99.90;;;;;;5055884;28;20037;-81
2023/08/05 01:12:59;;;;;;;3.70;1.55;;;20.50;99.90;;;;;;5055258;28;20032;-81
2023/08/05 01:15:24;;;;;;;2.45;1.20;;;20.50;99.90;;;;;;5055938;28;20061;-81
2023/08/05 01:17:53;;;;;;;4.90;1.17;;;20.50;99.90;;;;;;5054413;28;20464;-81
2023/08/05 01:20:23;;;;;;;3.13;1.45;;;20.50;99.90;;;;;;5055801;28;20025;-82
2023/08/05 01:22:53;;;;;;;2.70;1.25;;;20.50;99.90;;;;;;5055648;28;20037;-81
2023/08/05 01:25:31;;;;;;;2.28;1.05;;;20.50;99.90;;;;;;5055011;28;20490;-81
2023/08/05 01:27:59;;;;;;;2.80;1.20;;;20.50;99.90;;;;;;5055273;28;20477;-81
2023/08/05 01:30:25;;;;;;;3.42;0.93;;;20.50;99.90;;;;;;5055271;28;20537;-82
2023/08/05 01:32:57;;;;;;;2.67;1.20;;;20.40;99.90;;;;;;5039350;28;20040;-82
2023/08/05 01:35:23;;;;;;;4.10;1.30;;;20.40;99.90;;;;;;5050530;28;20037;-81
2023/08/05 01:37:49;;;;;;;2.50;1.15;;;20.40;99.90;;;;;;5035405;28;20037;-82
2023/08/05 01:40:15;;;;;;;3.25;0.80;;;20.40;99.90;;;;;;5035446;28;20060;-81
2023/08/05 01:42:41;;;;;;;3.00;1.10;;;20.40;99.90;;;;;;5034943;28;20033;-81
2023/08/05 01:45:07;;;;;;;3.97;1.10;;;20.30;99.90;;;;;;5033672;28;20522;-81
2023/08/05 01:47:33;;;;;;;2.35;1.10;;;20.30;99.90;;;;;;5035113;28;20045;-82
2023/08/05 01:49:58;;;;;;;3.88;1.38;;;20.30;99.90;;;;;;5035252;28;20485;-82
2023/08/05 01:52:24;;;;;;;2.40;1.13;;;20.30;99.90;;;;;;5034586;28;20064;-81
2023/08/05 01:54:50;;;;;;;2.13;1.10;;;20.30;99.90;;;;;;5033770;28;20040;-82
2023/08/05 01:57:15;;;;;;;3.28;1.27;;;20.30;99.90;;;;;;5034854;28;20124;-81
2023/08/05 01:59:41;;;;;;;2.47;1.35;;;20.30;99.90;;;;;;5035797;28;20025;-82
2023/08/05 02:02:07;;;;;;;2.92;1.05;;;20.30;99.90;;;;;;5040336;28;20038;-81
2023/08/05 02:04:32;;;;;;;3.67;1.10;;;20.20;99.90;;;;;;5038117;28;20032;-82
2023/08/05 02:06:58;;;;;;;4.97;1.17;;;20.20;99.90;;;;;;5039356;28;20532;-82
2023/08/05 02:09:24;;;;;;;2.60;1.20;;;20.20;99.90;;;;;;5041674;28;20044;-82
2023/08/05 02:11:49;;;;;;;5.10;1.27;;;20.20;99.90;;;;;;5041834;28;20037;-82
2023/08/05 02:14:16;;;;;;;3.35;1.17;;;20.10;99.90;;;;;;5055512;28;20037;-81
2023/08/05 02:16:42;;;;;;;3.00;0.95;;;20.10;99.90;;;;;;5056158;28;20064;-81
2023/08/05 02:19:07;;;;;;;4.30;1.15;;;20.10;99.90;;;;;;5055349;28;20056;-81
2023/08/05 02:21:33;;;;;;;2.67;1.17;;;20.10;99.90;;;;;;5053504;28;20477;-81
2023/08/05 02:23:59;;;;;;;2.58;1.10;;;20.10;99.90;;;;;;5054758;28;20485;-82
2023/08/05 02:26:24;;;;;;;3.95;1.30;;;20.10;99.90;;;;;;5054283;28;20454;-82
2023/08/05 02:28:50;;;;;;;2.72;0.93;;;20.10;99.90;;;;;;5054098;28;20405;-81
2023/08/05 02:31:16;;;;;;;4.20;1.17;;;20.10;99.90;;;;;;5053880;28;20053;-81
2023/08/05 02:33:41;;;;;;;3.00;1.00;;;20.00;99.90;;;;;;5053932;28;20035;-82
2023/08/05 02:36:07;;;;;;;4.82;1.30;;;20.00;99.90;;;;;;5054095;28;20385;-82
2023/08/05 02:38:33;;;;;;;4.88;1.08;;;20.10;99.90;;;;;;5053931;28;20101;-82
2023/08/05 02:40:59;;;;;;;2.55;1.00;;;20.10;99.90;;;;;;5053731;28;20032;-82
2023/08/05 02:43:25;;;;;;;2.47;1.10;;;20.10;99.90;;;;;;5053483;28;20069;-81
2023/08/05 02:45:55;;;;;;;3.65;1.40;;;20.20;99.90;;;;;;5053725;28;20453;-82
2023/08/05 02:48:21;;;;;;;2.42;1.20;;;20.20;99.90;;;;;;5053991;28;20389;-82
2023/08/05 02:50:47;;;;;;;2.17;1.05;;;20.20;99.90;;;;;;5053706;28;20087;-82
2023/08/05 02:53:13;;;;;;;3.85;1.20;;;20.20;99.90;;;;;;5052676;28;20033;-82
2023/08/05 02:55:38;;;;;;;3.15;1.30;;;20.20;99.90;;;;;;5053396;28;20033;-82
2023/08/05 02:58:04;;;;;;;2.38;1.13;;;20.20;99.90;;;;;;5053735;28;20029;-82
2023/08/05 03:00:29;;;;;;;1.83;1.10;;;20.20;99.90;;;;;;5035698;28;20029;-82
2023/08/05 03:02:55;;;;;;;3.30;1.25;;;20.20;99.90;;;;;;5053628;28;20097;-82
2023/08/05 03:05:21;;;;;;;2.92;1.08;;;20.30;99.90;;;;;;5052989;28;20033;-81
2023/08/05 03:07:46;;;;;;;4.13;1.13;;;20.30;99.90;;;;;;5033617;28;20041;-82
2023/08/05 03:10:12;;;;;;;3.00;1.15;;;20.30;99.90;;;;;;5033261;28;20029;-82
2023/08/05 03:12:38;;;;;;;3.33;1.35;;;20.30;99.90;;;;;;5031947;28;20029;-81
2023/08/05 03:15:04;;;;;;;1.38;0.90;;;20.30;99.90;;;;;;5015899;28;20381;-82
2023/08/05 03:17:30;;;;;;;3.45;1.20;;;20.30;99.90;;;;;;5032182;28;20468;-81
2023/08/05 03:19:55;;;;;;;2.38;1.10;;;20.30;99.90;;;;;;5048424;28;20041;-81
2023/08/05 03:22:21;;;;;;;4.90;1.10;;;20.30;99.90;;;;;;5032415;28;20036;-82
2023/08/05 03:24:46;;;;;;;2.38;1.05;;;20.20;99.90;;;;;;5031811;28;20136;-82
2023/08/05 03:27:12;;;;;;;2.17;1.13;;;20.10;99.90;;;;;;5031666;28;20034;-81
2023/08/05 03:29:38;;;;;;;4.30;1.23;;;20.10;99.90;;;;;;5031738;28;20071;-81
2023/08/05 03:32:03;;;;;;;2.72;1.00;;;20.10;99.90;;;;;;5033132;28;20106;-82
2023/08/05 03:34:29;;;;;;;2.10;1.10;;;20.10;99.90;;;;;;5031840;28;20086;-82
2023/08/05 03:36:55;;;;;;;2.40;0.98;;;20.10;99.90;;;;;;5032870;28;20022;-82
2023/08/05 03:39:21;;;;;;;3.20;1.00;;;20.10;99.90;;;;;;5033341;28;20448;-82
2023/08/05 03:41:47;;;;;;;3.58;1.10;;;20.10;99.90;;;;;;5033198;28;20033;-83
2023/08/05 03:44:13;;;;;;;1.80;1.38;;;20.10;99.90;;;;;;5032713;28;20025;-82
2023/08/05 03:46:39;;;;;;;3.25;1.08;;;20.10;99.90;;;;;;5031809;28;20415;-82
2023/08/05 03:49:04;;;;;;;2.38;1.10;;;20.10;99.90;;;;;;5032951;28;20505;-82
2023/08/05 03:51:30;;;;;;;2.42;1.20;;;20.10;99.90;;;;;;5015239;28;20029;-82
2023/08/05 03:53:56;;;;;;;3.45;1.30;;;20.10;99.90;;;;;;5031247;28;20029;-82
2023/08/05 03:56:26;;;;;;;2.72;1.20;;;20.00;99.90;;;;;;5032639;28;20033;-81
2023/08/05 03:58:53;;;;;;;2.85;1.70;;;20.00;99.90;;;;;;5033069;28;20026;-82
2023/08/05 04:01:21;;;;;;;4.72;1.45;;;20.00;99.90;;;;;;5031810;28;20026;-82
2023/08/05 04:03:50;;;;;;;3.60;1.35;;;20.00;99.90;;;;;;5033059;28;20033;-81
2023/08/05 04:06:16;;;;;;;3.90;1.60;;;19.90;99.90;;;;;;5033969;28;20109;-82
2023/08/05 04:08:42;;;;;;;3.08;1.60;;;19.80;99.90;;;;;;5033327;28;20067;-83
2023/08/05 04:11:08;;;;;;;4.25;1.50;;;19.90;99.90;;;;;;5033880;28;20030;-82
2023/08/05 04:13:37;;;;;;;3.38;0.90;;;19.80;99.90;;;;;;5033779;28;20095;-82
2023/08/05 04:16:04;;;;;;;2.05;1.10;;;19.80;99.90;;;;;;5033789;28;20029;-82
2023/08/05 04:18:37;;;;;;;3.05;1.25;;;19.80;99.90;;;;;;5049279;28;20033;-82
2023/08/05 04:21:04;;;;;;;4.45;1.50;;;19.80;99.90;;;;;;5034239;28;20044;-83
2023/08/05 04:23:32;;;;;;;1.73;1.17;;;19.80;99.90;;;;;;5033624;28;20025;-82
2023/08/05 04:26:02;;;;;;;3.55;1.02;;;19.80;99.90;;;;;;5033220;28;20026;-82
2023/08/05 04:28:28;;;;;;;4.38;1.08;;;19.80;99.90;;;;;;5033213;28;20042;-82
2023/08/05 04:30:54;;;;;;;2.42;1.20;;;19.90;99.90;;;;;;5034604;28;20063;-82
2023/08/05 04:33:20;;;;;;;5.18;1.00;;;19.80;99.90;;;;;;5034737;28;20155;-81
2023/08/05 04:35:47;;;;;;;2.08;1.02;;;19.80;99.90;;;;;;5039026;28;20072;-82
2023/08/05 04:38:13;;;;;;;2.42;1.40;;;19.90;99.90;;;;;;5035629;28;20036;-81
2023/08/05 04:40:39;;;;;;;2.92;1.45;;;19.90;99.90;;;;;;5037970;28;20038;-80
2023/08/05 04:43:05;;;;;;;4.15;1.23;;;19.80;99.90;;;;;;5036287;28;20087;-82
2023/08/05 04:45:30;;;;;;;2.85;1.75;;;19.90;99.90;;;;;;5035395;28;20113;-81
2023/08/05 04:47:56;;;;;;;3.65;1.35;;;19.80;99.90;;;;;;5036506;28;20041;-82
2023/08/05 04:50:22;;;;;;;1.95;1.42;;;19.80;99.90;;;;;;5053951;28;20459;-82
2023/08/05 04:52:48;;;;;;;6.85;2.15;;;19.70;99.90;;;;;;5036802;28;20025;-82
2023/08/05 04:55:17;;;;;;;3.92;1.70;;;19.70;99.90;;;;;;5036575;28;20029;-82
2023/08/05 04:57:44;;;;;;;5.57;1.85;;;19.70;99.90;;;;;;5035089;28;20037;-81
2023/08/05 05:00:10;;;;;;;5.30;2.08;;;19.70;99.90;;;;;;5036442;28;20022;-81
2023/08/05 05:02:39;;;;;;;2.83;2.03;;;19.60;99.90;;;;;;5036176;28;20025;-82
2023/08/05 05:05:05;;;;;;;1.98;0.90;;;19.60;99.90;;;;;;5034570;28;20030;-81
2023/08/05 05:07:31;;;;;;;3.88;2.28;;;19.60;99.90;;;;;;5018182;28;20049;-81
2023/08/05 05:09:57;;;;;;;2.60;1.67;;;19.50;99.90;;;;;;5036284;28;20047;-82
2023/08/05 05:12:22;;;;;;;3.45;1.90;;;19.50;99.90;;;;;;5034052;28;20029;-82
2023/08/05 05:14:48;;;;;;;3.70;1.65;;;19.40;99.90;;;;;;5035763;28;20045;-82
2023/08/05 05:17:18;;;;;;;4.70;2.22;;;19.50;99.90;;;;;;5035758;28;20038;-82
2023/08/05 05:19:44;;;;;;;2.88;1.23;;;19.60;99.90;;;;;;5036103;28;20037;-82
2023/08/05 05:22:15;;;;;;;2.75;1.58;;;19.60;99.90;;;;;;5036076;28;20030;-82
2023/08/05 05:24:40;;;;;;;5.13;2.17;;;19.60;99.90;;;;;;5036429;28;20021;-82
2023/08/05 05:27:06;;;;;;;5.63;2.20;;;19.60;99.90;;;;;;5035482;28;20528;-82
2023/08/05 05:29:31;;;;;;;3.38;1.42;;;19.60;99.90;;;;;;5038110;28;20083;-82
2023/08/05 05:31:57;;;;;;;2.95;1.80;;;19.60;99.90;;;;;;5038435;28;20057;-81
2023/08/05 05:34:23;;;;;;;4.45;2.28;;;19.60;99.90;;;;;;5039106;28;20045;-81
2023/08/05 05:36:48;;;;;;;3.53;1.73;;;19.60;99.90;;;;;;5034862;28;20113;-82
2023/08/05 05:39:14;;;;;;;3.78;2.35;;;19.60;99.90;;;;;;5035716;28;20053;-82
2023/08/05 05:41:40;;;;;;;4.28;2.13;;;19.60;99.90;;;;;;5034971;28;20420;-82
2023/08/05 05:44:06;;;;;;;8.88;3.45;;;19.60;99.90;;;;;;5033344;28;20033;-82
2023/08/05 05:46:32;;;;;;;3.75;2.90;;;19.60;99.90;;;;;;5034534;28;20067;-82
2023/08/05 05:48:58;;;;;;;5.85;3.20;;;19.70;99.90;;;;;;5034798;28;20474;-82
2023/08/05 05:51:24;;;;;;;6.72;3.67;;;19.60;99.90;;;;;;5035058;28;20033;-83
2023/08/05 05:53:51;;;;;;;4.65;3.53;;;19.50;99.90;;;;;;5034646;28;20030;-82
2023/08/05 05:56:17;;;;;;;7.93;4.15;;;19.60;99.90;;;;;;5033713;28;20390;-81
2023/08/05 05:58:42;;;;;;;7.07;3.63;;;19.50;99.90;;;;;;5034907;28;20052;-83
2023/08/05 06:01:08;;;;;;;5.57;3.85;;;19.40;99.90;;;;;;5034680;28;20108;-82
2023/08/05 06:03:34;;;;;;;3.22;2.60;;;19.50;99.90;;;;;;5034640;28;20119;-81
2023/08/05 06:06:00;;;;;;;5.13;2.83;;;19.50;99.90;;;;;;5034850;28;20140;-82
2023/08/05 06:08:29;;;;;;;4.38;2.65;;;19.50;99.90;;;;;;5034352;28;20064;-82
2023/08/05 06:10:55;;;;;;;5.38;3.42;;;19.50;99.90;;;;;;5032938;28;20078;-82
2023/08/05 06:13:21;;;;;;;4.07;1.90;;;19.50;99.90;;;;;;5033083;28;20101;-81
2023/08/05 06:15:46;;;;;;;11.20;4.50;;;19.50;99.90;;;;;;5034572;28;20450;-82
2023/08/05 06:18:12;;;;;;;5.75;2.92;;;19.40;99.90;;;;;;5041350;28;20041;-81
2023/08/05 06:20:38;;;;;;;9.52;4.65;;;19.40;99.90;;;;;;5042018;28;20032;-81
2023/08/05 06:23:06;;;;;;;6.03;3.03;;;19.40;99.90;;;;;;5063481;28;20070;-81
2023/08/05 06:25:32;;;;;;;7.55;4.53;;;19.30;99.90;;;;;;5058768;28;20083;-80
2023/08/05 06:27:57;;;;;;;4.93;3.03;;;19.30;99.90;;;;;;5057596;28;20041;-80
2023/08/05 06:30:23;;;;;;;4.13;2.53;;;19.30;99.90;;;;;;5055934;28;20045;-81
2023/08/05 06:32:49;;;;;;;4.97;2.65;;;19.30;99.90;;;;;;5055447;28;20026;-80
2023/08/05 06:35:15;;;;;;;5.68;3.15;;;19.40;99.90;;;;;;5054796;28;20021;-80
2023/08/05 06:37:41;;;;;;;7.72;4.20;;;19.40;99.90;;;;;;5049909;28;20047;-81
2023/08/05 06:40:07;;;;;;;6.13;4.07;;;19.40;99.90;;;;;;5044483;28;20350;-80
2023/08/05 06:42:33;;;;;;;4.68;2.55;;;19.50;99.90;;;;;;5045902;28;20419;-80
2023/08/05 06:44:58;;;;;;;4.32;2.70;;;19.50;99.90;;;;;;5048888;28;20056;-81
2023/08/05 06:47:30;;;;;;;6.07;2.88;;;19.60;99.90;;;;;;5052891;28;20029;-81
2023/08/05 06:49:57;;;;;;;11.48;5.03;;;19.70;99.90;;;;;;5061256;28;20116;-81
2023/08/05 06:52:22;;;;;;;4.72;2.80;;;19.70;99.90;;;;;;5054068;28;20045;-79
2023/08/05 06:54:48;;;;;;;4.70;2.42;;;19.70;99.90;;;;;;5044681;28;20025;-79
2023/08/05 06:57:14;;;;;;;10.80;6.07;;;19.80;99.90;;;;;;5042019;28;20029;-80
2023/08/05 06:59:39;;;;;;;7.47;4.90;;;19.80;99.90;;;;;;5026315;28;20033;-79
2023/08/05 07:02:06;;;;;;;7.03;5.00;;;19.80;99.90;;;;;;5045024;28;20029;-79
2023/08/05 07:04:32;;;;;;;10.07;5.05;;;19.70;99.90;;;;;;5037722;28;20033;-79
2023/08/05 07:06:58;;;;;;;5.70;3.80;;;19.80;99.90;;;;;;5041418;28;20478;-79
2023/08/05 07:09:23;;;;;;;7.60;4.88;;;19.80;99.90;;;;;;5046230;28;20040;-80
2023/08/05 07:11:49;;;;;;;6.80;5.00;;;19.90;99.90;;;;;;5045815;28;20029;-80
2023/08/05 07:14:15;;;;;;;4.53;3.30;;;19.80;99.90;;;;;;5049048;28;20067;-81
2023/08/05 07:16:40;;;;;;;7.75;4.03;;;19.90;99.90;;;;;;5052622;28;20033;-80
2023/08/05 07:19:07;;;;;;;6.78;3.08;;;20.00;99.90;;;;;;5052244;28;20110;-80
2023/08/05 07:21:33;;;;;;;4.65;3.35;;;20.00;99.90;;;;;;5049425;28;21115;-80
2023/08/05 07:23:59;;;;;;;9.07;3.88;;;20.00;99.90;;;;;;5047585;28;20037;-79
2023/08/05 07:26:24;;;;;;;6.68;3.35;;;20.00;99.90;;;;;;5051879;28;20025;-80
2023/08/05 07:28:50;;;;;;;9.00;3.83;;;20.10;99.90;;;;;;5048127;28;20396;-81
2023/08/05 07:31:16;;;;;;;5.68;3.75;;;20.10;99.90;;;;;;5049685;28;20061;-80
2023/08/05 07:33:46;;;;;;;7.15;3.10;;;20.20;99.90;;;;;;5053050;28;20481;-81
2023/08/05 07:36:15;;;;;;;6.60;3.63;;;20.30;99.90;;;;;;5053224;28;20017;-81
2023/08/05 07:38:43;;;;;;;8.30;4.43;;;20.30;99.90;;;;;;5052269;28;20501;-78
2023/08/05 07:41:09;;;;;;;7.07;4.10;;;20.30;99.90;;;;;;5051320;28;20025;-82
2023/08/05 07:43:36;;;;;;;9.27;4.43;;;20.50;99.90;;;;;;5052123;28;20025;-80
2023/08/05 07:46:06;;;;;;;7.15;4.00;;;20.50;99.90;;;;;;5050706;28;20025;-81
2023/08/05 07:48:35;;;;;;;6.65;4.10;;;20.60;99.90;;;;;;5051523;28;20041;-80
2023/08/05 07:51:06;;;;;;;5.38;3.58;;;20.70;99.90;;;;;;5051278;28;20327;-80
2023/08/05 07:53:35;;;;;;;7.03;3.50;;;20.50;99.90;;;;;;5051393;28;20041;-80
2023/08/05 07:56:12;;;;;;;8.85;4.38;;;20.40;99.90;;;;;;5051638;28;20021;-81
2023/08/05 07:58:44;;;;;;;8.95;5.30;;;20.30;99.90;;;;;;5052317;28;20033;-80
2023/08/05 08:01:12;;;;;;;8.05;3.88;;;20.30;99.90;;;;;;5053039;28;20036;-80
2023/08/05 08:03:37;;;;;;;7.93;3.30;;;20.20;99.90;;;;;;5051659;28;20029;-79
2023/08/05 08:06:03;;;;;;;3.47;2.70;;;20.20;99.90;;;;;;5051297;28;20070;-80
2023/08/05 08:08:29;;;;;;;4.95;2.90;;;20.10;99.90;;;;;;5052090;28;20069;-80
2023/08/05 08:10:55;;;;;;;3.97;2.10;;;20.10;99.90;;;;;;5056979;28;20060;-80
2023/08/05 08:13:20;;;;;;;3.58;2.03;;;20.10;99.90;;;;;;5056225;28;20433;-80
2023/08/05 08:15:46;;;;;;;5.57;1.95;;;20.10;99.90;;;;;;5055282;28;20027;-79
2023/08/05 08:18:12;;;;;;;2.65;1.90;;;20.20;99.90;;;;;;5054527;28;20343;-80
2023/08/05 08:20:37;;;;;;;5.75;1.70;;;20.30;99.90;;;;;;5056538;28;20171;-80
2023/08/05 08:23:03;;;;;;;4.40;1.70;;;20.50;99.90;;;;;;5052072;28;20028;-81
2023/08/05 08:25:29;;;;;;;6.25;2.03;;;20.70;99.90;;;;;;5035296;28;20029;-80
2023/08/05 08:27:54;;;;;;;3.13;1.80;;;20.80;99.90;;;;;;5035648;28;20044;-80
2023/08/05 08:30:20;;;;;;;5.93;1.83;;;21.00;99.90;;;;;;5036351;28;20385;-80
2023/08/05 08:32:45;;;;;;;5.43;2.05;;;21.00;99.90;;;;;;5036874;28;20029;-80
2023/08/05 08:35:11;;;;;;;2.90;1.52;;;21.00;99.50;;;;;;5040535;28;20033;-79
2023/08/05 08:37:37;;;;;;;5.85;1.52;;;21.00;99.40;;;;;;5042490;28;20053;-80
2023/08/05 08:40:06;;;;;;;6.55;1.10;;;20.90;98.70;;;;;;5042914;28;20056;-81
2023/08/05 08:42:31;;;;;;;4.15;1.23;;;20.80;98.60;;;;;;5037018;28;20091;-80
2023/08/05 08:45:02;;;;;;;3.67;1.08;;;20.80;98.90;;;;;;5038473;28;20412;-85
2023/08/05 08:47:28;;;;;;;4.05;1.75;;;21.00;99.20;;;;;;5055774;28;20046;-84
2023/08/05 08:49:54;;;;;;;3.08;1.63;;;21.00;99.00;;;;;;5039496;28;20139;-85
2023/08/05 08:52:20;;;;;;;3.97;1.60;;;21.00;98.70;;;;;;5037094;28;20029;-85
2023/08/05 08:54:47;;;;;;;4.28;1.52;;;20.90;98.70;;;;;;5052124;28;20044;-85
2023/08/05 08:57:13;;;;;;;2.63;1.52;;;20.90;98.60;;;;;;5054341;28;20112;-85
2023/08/05 08:59:40;;;;;;;2.67;1.70;;;20.80;98.70;;;;;;5055660;28;20048;-84
2023/08/05 09:02:11;;;;;;;3.08;1.80;;;20.70;99.10;;;;;;5057101;28;20105;-85
2023/08/05 09:04:40;;;;;;;2.35;1.60;;;20.60;99.50;;;;;;5058514;28;20068;-84
2023/08/05 09:07:07;;;;;;;2.75;2.30;;;20.60;99.60;;;;;;5059482;28;20028;-84
2023/08/05 09:09:32;;;;;;;3.33;1.92;;;20.70;99.40;;;;;;5052716;28;20097;-83
2023/08/05 09:12:02;;;;;;;3.88;2.20;;;20.70;99.60;;;;;;5055424;28;20048;-83
2023/08/05 09:14:28;;;;;;;4.30;2.85;;;20.70;99.30;;;;;;5054003;28;20120;-84
2023/08/05 09:16:59;;;;;;;4.43;2.22;;;20.80;98.70;;;;;;5066907;28;20048;-82
2023/08/05 09:19:28;;;;;;;3.88;2.50;;;20.80;98.80;;;;;;5072578;28;20131;-82
2023/08/05 09:21:55;;;;;;;3.63;1.77;;;20.90;98.30;;;;;;5072852;28;20036;-82
2023/08/05 09:24:25;;;;;;;3.15;2.15;;;21.00;98.60;;;;;;5073808;28;20045;-82
2023/08/05 09:26:58;;;;;;;4.30;2.88;;;21.00;98.80;;;;;;5067573;28;20080;-82
2023/08/05 09:29:26;;;;;;;6.13;3.22;;;21.10;98.50;;;;;;5069301;28;20485;-83
2023/08/05 09:31:55;;;;;;;4.20;2.20;;;21.30;98.10;;;;;;5065627;28;20048;-83
2023/08/05 09:34:21;;;;;;;4.25;3.30;;;21.50;97.90;;;;;;5062152;28;20025;-83
2023/08/05 09:36:47;;;;;;;3.47;2.90;;;21.70;97.10;;;;;;5043509;28;20041;-81
2023/08/05 09:39:16;;;;;;;3.72;2.80;;;21.80;96.70;;;;;;5043828;28;20030;-83
2023/08/05 09:41:51;;;;;;;4.22;2.50;;;21.90;96.20;;;;;;5042851;28;20028;-82
2023/08/05 09:44:17;;;;;;;3.17;1.92;;;22.00;96.90;;;;;;5047206;28;20051;-82
2023/08/05 09:46:46;;;;;;;2.85;2.33;;;22.00;96.80;;;;;;5041024;28;20029;-83
2023/08/05 09:49:17;;;;;;;5.50;2.55;;;21.90;96.20;;;;;;5060528;28;20132;-82
2023/08/05 09:51:45;;;;;;;2.85;2.05;;;22.00;96.40;;;;;;5045130;28;20112;-83
2023/08/05 09:54:17;;;;;;;2.50;1.58;;;21.90;96.80;;;;;;5046557;28;20113;-83
2023/08/05 09:56:44;;;;;;;1.70;1.08;;;21.90;95.90;;;;;;5050242;28;20033;-82
2023/08/05 09:59:12;;;;;;;2.97;2.00;;;21.90;96.10;;;;;;5043480;28;20045;-83
2023/08/05 10:01:40;;;;;;;2.25;1.38;;;22.00;95.90;;;;;;5044750;28;20060;-83
2023/08/05 10:04:08;;;;;;;3.42;1.88;;;22.20;95.70;;;;;;5057377;28;20067;-82
2023/08/05 10:06:38;;;;;;;3.83;1.80;;;22.40;95.40;;;;;;5041749;28;20050;-82
2023/08/05 10:09:04;;;;;;;2.63;1.55;;;22.50;94.70;;;;;;5038677;28;20334;-84
2023/08/05 10:11:30;;;;;;;1.65;1.25;;;22.50;94.40;;;;;;5036221;28;20125;-85
2023/08/05 10:13:57;;;;;;;1.55;0.90;;;22.50;93.90;;;;;;5034451;28;20071;-85
2023/08/05 10:16:24;;;;;;;3.45;1.40;;;22.40;94.40;;;;;;5035297;28;20030;-85
2023/08/05 10:18:50;;;;;;;2.63;1.30;;;22.40;94.40;;;;;;5050528;28;20033;-85
2023/08/05 10:21:37;;;;;;;3.72;1.40;;;22.40;94.30;;;;;;5033448;28;20389;-85
2023/08/05 10:24:03;;;;;;;3.90;1.20;;;22.40;93.80;;;;;;5036025;28;20064;-85
2023/08/05 10:26:43;;;;;;;2.83;1.20;;;22.30;94.10;;;;;;5034187;28;20120;-73
2023/08/05 10:29:28;;;;;;;2.17;1.27;;;22.30;94.40;;;;;;5034397;28;20091;-73
2023/08/05 10:32:14;;;;;;;2.38;1.20;;;22.30;94.80;;;;;;5034893;28;20060;-73
2023/08/05 10:34:40;;;;;;;1.63;0.90;;;22.30;95.30;;;;;;5054381;28;20091;-74
2023/08/05 10:37:06;;;;;;;1.48;0.82;;;22.30;95.60;;;;;;5053743;28;20472;-73
2023/08/05 10:39:39;;;;;;;14.40;11.38;;;22.30;95.80;;;;;;5052848;28;20483;-73
2023/08/05 10:42:18;;;;;;;4.30;3.38;;;22.30;95.90;;;;;;5054272;28;20039;-75
2023/08/05 10:44:44;;;;;;;7.13;4.50;;;22.30;95.70;;;;;;5054108;28;20060;-76
2023/08/05 10:47:10;;;;;;;3.70;2.90;;;22.20;95.20;;;;;;5054607;28;20060;-74
2023/08/05 10:49:36;;;;;;;8.77;4.97;;;22.30;94.80;;;;;;5040626;28;20120;-76
2023/08/05 10:52:02;;;;;;;5.53;4.10;;;22.20;94.90;;;;;;5060662;28;20059;-76
2023/08/05 10:54:31;;;;;;;3.50;2.78;;;22.30;95.30;;;;;;5054564;28;20025;-75
2023/08/05 10:56:57;;;;;;;2.90;2.10;;;22.40;94.90;;;;;;5054921;28;20078;-76
2023/08/05 10:59:23;;;;;;;7.70;2.25;;;22.40;94.50;;;;;;5053950;28;20037;-76
2023/08/05 11:01:53;;;;;;;2.63;1.90;;;22.30;94.60;;;;;;5053474;28;20124;-76
2023/08/05 11:04:29;;;;;;;2.47;1.73;;;22.30;94.90;;;;;;5051251;28;20086;-74
2023/08/05 11:06:56;;;;;;;3.00;1.42;;;22.20;94.80;;;;;;5053042;28;20029;-87
2023/08/05 11:09:34;;;;;;;2.88;1.65;;;22.10;95.10;;;;;;5040210;28;20036;-85
2023/08/05 11:12:01;;;;;;;3.00;1.50;;;22.00;95.30;;;;;;5048283;28;20033;-87
2023/08/05 11:14:27;;;;;;;2.17;1.40;;;22.10;95.30;;;;;;5036985;28;20077;-86
2023/08/05 11:17:00;;;;;;;3.47;1.48;;;22.10;95.00;;;;;;5033511;28;20312;-86
2023/08/05 11:19:26;;;;;;;1.95;1.10;;;22.10;95.30;;;;;;5034975;28;20029;-88
2023/08/05 11:21:52;;;;;;;4.63;1.48;;;22.30;95.50;;;;;;5034948;28;20029;-86
2023/08/05 11:24:18;;;;;;;1.95;1.38;;;22.40;95.20;;;;;;5036674;28;20037;-87
2023/08/05 11:26:44;;;;;;;2.60;1.00;;;22.30;95.10;;;;;;5035213;28;20064;-86
2023/08/05 11:29:10;;;;;;;3.17;1.30;;;22.40;94.90;;;;;;5035791;28;20096;-87
2023/08/05 11:31:36;;;;;;;2.95;1.40;;;22.40;94.80;;;;;;5033827;28;20116;-86
2023/08/05 11:34:02;;;;;;;5.55;1.30;;;22.50;94.50;;;;;;5034511;28;20083;-86
2023/08/05 11:36:29;;;;;;;4.88;1.40;;;22.60;94.40;;;;;;5017344;28;20389;-85
2023/08/05 11:39:00;;;;;;;2.40;1.50;;;22.60;94.60;;;;;;5035789;28;20072;-84
2023/08/05 11:41:26;;;;;;;3.03;1.30;;;22.60;94.40;;;;;;5037209;28;20096;-85
2023/08/05 11:43:54;;;;;;;3.42;1.38;;;22.50;94.50;;;;;;5035578;28;20029;-84
2023/08/05 11:46:27;;;;;;;1.70;1.00;;;22.50;94.20;;;;;;5053012;28;20032;-84
2023/08/05 11:49:12;;;;;;;2.75;1.35;;;22.40;94.40;;;;;;5054119;28;20040;-85
2023/08/05 11:51:47;;;;;;;1.88;0.98;;;22.30;94.50;;;;;;5055438;28;20079;-84
2023/08/05 11:54:22;;;;;;;2.28;1.10;;;22.30;94.30;;;;;;5033926;28;20107;-85
2023/08/05 11:56:48;;;;;;;1.02;0.80;;;22.20;93.70;;;;;;5054425;28;20381;-86
2023/08/05 11:59:14;;;;;;;2.78;1.00;;;22.20;94.10;;;;;;5053329;28;20033;-85
2023/08/05 12:01:40;;;;;;;3.88;1.95;;;22.20;94.50;;;;;;5053463;28;20447;-82
2023/08/05 12:04:07;;;;;;;6.25;2.75;;;22.00;95.60;;;;;;5053237;28;20579;-81
2023/08/05 12:06:33;;;;;;;5.15;2.08;;;21.80;97.00;;;;;;5053535;28;20044;-85
2023/08/05 12:09:00;;;;;;;3.20;2.33;;;21.50;97.40;;;;;;5052801;28;20037;-85
2023/08/05 12:11:26;;;;;;;2.55;2.35;;;21.30;98.20;;;;;;5053029;28;20029;-84
2023/08/05 12:13:52;;;;;;;7.72;2.92;;;21.00;98.80;;;;;;5053118;28;20037;-87
2023/08/05 12:16:18;;;;;;;7.18;2.35;;;20.80;99.90;;;;;;5052278;28;20456;-85
2023/08/05 12:18:44;;;;;;;6.05;2.92;;;20.70;99.90;;;;;;5040369;28;20064;-86
2023/08/05 12:21:10;;;;;;;2.90;2.60;;;20.60;99.90;;;;;;5056150;28;20025;-85
2023/08/05 12:23:40;;;;;;;3.25;1.92;;;20.40;99.90;;;;;;5044563;28;20059;-88
2023/08/05 12:26:07;;;;;;;3.42;1.98;;;20.40;99.90;;;;;;5034369;28;20107;-86
2023/08/05 12:28:32;;;;;;;3.05;1.88;;;20.30;99.90;;;;;;5032995;28;20040;-87
2023/08/05 12:30:58;;;;;;;2.58;2.13;;;20.40;99.90;;;;;;5034215;28;20053;-87
2023/08/05 12:33:24;;;;;;;2.85;2.05;;;20.40;99.90;;;;;;5033566;28;20478;-87
2023/08/05 12:35:50;;;;;;;5.55;2.42;;;20.50;99.90;;;;;;5016008;28;20045;-87
2023/08/05 12:38:15;;;;;;;3.67;1.80;;;20.50;99.90;;;;;;5033249;28;20034;-86
2023/08/05 12:40:41;;;;;;;3.63;2.50;;;20.60;99.90;;;;;;5033327;28;20021;-86
2023/08/05 12:43:06;;;;;;;3.95;1.85;;;20.60;99.90;;;;;;5032291;28;20034;-84
2023/08/05 12:45:32;;;;;;;3.10;2.33;;;20.60;99.90;;;;;;5052057;28;20354;-85